createdAt,value
2024-03-16T00:01:59.836Z,4.34
2024-03-16T00:03:59.785Z,4.32
2024-03-16T00:05:59.696Z,4.27
2024-03-16T00:07:59.713Z,4.19
2024-03-16T00:09:59.852Z,4.21
2024-03-16T00:11:59.661Z,4.33
2024-03-16T00:14:47.112Z,4.34
2024-03-16T00:16:47.209Z,4.39
2024-03-16T00:18:47.125Z,4.41
2024-03-16T00:20:47.137Z,4.43
2024-03-16T00:22:47.179Z,4.44
2024-03-16T00:24:47.153Z,4.43
2024-03-16T00:26:47.098Z,4.43
2024-03-16T00:30:28.372Z,4.45
2024-03-16T00:32:28.289Z,4.42
2024-03-16T00:34:28.273Z,4.46
2024-03-16T00:36:28.457Z,4.45
2024-03-16T00:38:28.380Z,4.51
2024-03-16T00:40:28.254Z,4.53
2024-03-16T00:42:28.264Z,4.57
2024-03-16T00:45:31.687Z,4.56
2024-03-16T00:47:31.500Z,4.49
2024-03-16T00:49:31.524Z,4.29
2024-03-16T00:51:31.881Z,4.34
2024-03-16T00:53:31.464Z,4.44
2024-03-16T00:55:32.948Z,4.47
2024-03-16T00:57:31.821Z,4.47
2024-03-16T01:00:41.628Z,4.44
2024-03-16T01:02:41.625Z,4.49
2024-03-16T01:04:41.819Z,4.48
2024-03-16T01:06:41.696Z,4.5
2024-03-16T01:08:41.612Z,4.45
2024-03-16T01:10:41.605Z,4.52
2024-03-16T01:12:41.571Z,4.51
2024-03-16T01:15:56.090Z,4.48
2024-03-16T01:17:55.947Z,4.51
2024-03-16T01:19:55.953Z,4.53
2024-03-16T01:21:55.991Z,4.59
2024-03-16T01:23:55.898Z,4.64
2024-03-16T01:25:55.899Z,4.66
2024-03-16T01:27:55.997Z,4.68
2024-03-16T01:30:57.262Z,4.59
2024-03-16T01:32:57.606Z,4.58
2024-03-16T01:34:57.206Z,4.55
2024-03-16T01:36:57.220Z,4.61
2024-03-16T01:38:57.604Z,4.67
2024-03-16T01:40:57.197Z,4.68
2024-03-16T01:42:57.249Z,4.65
2024-03-16T01:45:53.576Z,4.66
2024-03-16T01:47:53.288Z,4.63
2024-03-16T01:49:53.314Z,4.48
2024-03-16T01:51:53.491Z,4.46
2024-03-16T01:53:53.310Z,4.46
2024-03-16T01:55:53.336Z,4.49
2024-03-16T01:57:53.618Z,4.48
2024-03-16T02:00:54.307Z,4.52
2024-03-16T02:02:54.718Z,4.51
2024-03-16T02:04:54.168Z,4.51
2024-03-16T02:06:54.242Z,4.56
2024-03-16T02:08:54.270Z,4.57
2024-03-16T02:10:54.188Z,4.53
2024-03-16T02:12:54.653Z,4.16
2024-03-16T02:16:10.222Z,4.36
2024-03-16T02:18:10.396Z,4.38
2024-03-16T02:20:10.187Z,4.5
2024-03-16T02:22:10.243Z,4.55
2024-03-16T02:24:10.265Z,4.56
2024-03-16T02:26:10.196Z,4.6
2024-03-16T02:28:10.327Z,4.59
2024-03-16T02:30:57.124Z,4.6
2024-03-16T02:32:56.925Z,4.62
2024-03-16T02:34:56.905Z,4.6
2024-03-16T02:36:57.480Z,4.56
2024-03-16T02:38:56.978Z,4.59
2024-03-16T02:40:57.042Z,4.61
2024-03-16T02:42:56.946Z,4.59
2024-03-16T02:46:38.077Z,4.52
2024-03-16T02:48:37.851Z,4.58
2024-03-16T02:50:37.879Z,4.63
2024-03-16T02:52:37.838Z,4.59
2024-03-16T02:54:37.814Z,4.54
2024-03-16T02:56:37.829Z,4.53
2024-03-16T02:58:37.878Z,4.53
2024-03-16T03:01:15.231Z,4.51
2024-03-16T03:03:15.195Z,4.46
2024-03-16T03:05:15.512Z,4.35
2024-03-16T03:07:15.236Z,4.39
2024-03-16T03:09:15.160Z,4.42
2024-03-16T03:11:15.240Z,4.44
2024-03-16T03:13:15.227Z,4.47
2024-03-16T03:16:55.412Z,4.49
2024-03-16T03:18:55.556Z,4.45
2024-03-16T03:20:55.441Z,4.32
2024-03-16T03:22:55.389Z,4.31
2024-03-16T03:24:55.600Z,4.49
2024-03-16T03:26:55.385Z,4.57
2024-03-16T03:28:55.406Z,4.57
2024-03-16T03:31:41.973Z,4.63
2024-03-16T03:33:41.767Z,4.63
2024-03-16T03:35:41.760Z,4.65
2024-03-16T03:37:41.852Z,4.62
2024-03-16T03:39:41.767Z,4.59
2024-03-16T03:41:41.738Z,4.56
2024-03-16T03:43:41.768Z,4.58
2024-03-16T03:46:54.346Z,4.58
2024-03-16T03:48:54.408Z,4.58
2024-03-16T03:50:54.452Z,4.57
2024-03-16T03:52:54.400Z,4.49
2024-03-16T03:54:54.278Z,4.49
2024-03-16T03:56:54.292Z,4.43
2024-03-16T03:58:54.245Z,4.26
2024-03-16T04:01:37.438Z,4.22
2024-03-16T04:03:37.384Z,4.34
2024-03-16T04:05:37.506Z,4.41
2024-03-16T04:07:37.384Z,4.44
2024-03-16T04:09:37.403Z,4.5
2024-03-16T04:11:37.453Z,4.53
2024-03-16T04:13:37.354Z,4.51
2024-03-16T04:17:07.562Z,4.48
2024-03-16T04:19:07.524Z,4.48
2024-03-16T04:21:07.496Z,4.45
2024-03-16T04:23:07.670Z,4.38
2024-03-16T04:25:07.667Z,4.35
2024-03-16T04:27:07.541Z,4.35
2024-03-16T04:29:07.535Z,4.4
2024-03-16T04:32:03.078Z,4.28
2024-03-16T04:34:02.904Z,4.2
2024-03-16T04:36:02.709Z,4.11
2024-03-16T04:38:02.838Z,4.03
2024-03-16T04:40:03.169Z,4.07
2024-03-16T04:42:03.054Z,4.06
2024-03-16T04:44:02.716Z,4.12
2024-03-16T04:47:12.616Z,4.08
2024-03-16T04:49:12.480Z,4.13
2024-03-16T04:51:12.455Z,4.12
2024-03-16T04:53:12.518Z,4.13
2024-03-16T04:55:12.728Z,4.13
2024-03-16T04:57:12.449Z,4.14
2024-03-16T04:59:12.505Z,4.11
2024-03-16T05:02:50.571Z,4.21
2024-03-16T05:04:50.515Z,4.23
2024-03-16T05:06:50.510Z,4.3
2024-03-16T05:08:50.572Z,4.33
2024-03-16T05:10:50.522Z,4.45
2024-03-16T05:12:50.568Z,4.49
2024-03-16T05:14:50.624Z,4.58
2024-03-16T05:17:08.993Z,4.61
2024-03-16T05:19:09.094Z,4.68
2024-03-16T05:21:09.051Z,4.7
2024-03-16T05:23:09.030Z,4.72
2024-03-16T05:25:09.041Z,4.8
2024-03-16T05:27:09.053Z,4.73
2024-03-16T05:29:09.178Z,4.85
2024-03-16T05:32:19.080Z,5.18
2024-03-16T05:34:19.072Z,5.07
2024-03-16T05:36:19.025Z,4.82
2024-03-16T05:38:19.410Z,4.76
2024-03-16T05:40:19.080Z,4.95
2024-03-16T05:42:19.051Z,5.2
2024-03-16T05:44:19.092Z,5.41
2024-03-16T05:47:44.659Z,5.56
2024-03-16T05:49:44.707Z,5.48
2024-03-16T05:51:44.554Z,5.8
2024-03-16T05:53:44.455Z,5.87
2024-03-16T05:55:44.496Z,5.84
2024-03-16T05:57:44.534Z,6
2024-03-16T05:59:44.642Z,6.18
2024-03-16T06:02:32.980Z,6.27
2024-03-16T06:04:32.856Z,6.12
2024-03-16T06:06:32.839Z,6.12
2024-03-16T06:08:33.264Z,6.14
2024-03-16T06:10:32.831Z,6.03
2024-03-16T06:12:32.879Z,6.13
2024-03-16T06:14:33.440Z,6.46
2024-03-16T06:18:26.080Z,6.29
2024-03-16T06:20:25.831Z,6.19
2024-03-16T06:22:25.824Z,6.2
2024-03-16T06:24:25.930Z,6.47
2024-03-16T06:26:25.917Z,6.58
2024-03-16T06:28:25.835Z,6.44
2024-03-16T06:30:25.880Z,6.87
2024-03-16T06:32:40.508Z,6.86
2024-03-16T06:34:40.348Z,6.76
2024-03-16T06:36:40.397Z,6.83
2024-03-16T06:38:40.476Z,7.37
2024-03-16T06:40:40.352Z,7.05
2024-03-16T06:42:40.370Z,7.03
2024-03-16T06:44:40.685Z,6.71
2024-03-16T06:46:40.418Z,6.79
2024-03-16T06:48:34.697Z,6.81
2024-03-16T06:50:34.772Z,6.72
2024-03-16T06:52:34.618Z,6.81
2024-03-16T06:54:34.613Z,6.44
2024-03-16T06:56:34.819Z,6.44
2024-03-16T06:58:34.617Z,6.67
2024-03-16T07:00:34.644Z,6.91
2024-03-16T07:03:19.367Z,7.02
2024-03-16T07:05:19.163Z,7.14
2024-03-16T07:07:19.152Z,7.25
2024-03-16T07:09:19.203Z,7.31
2024-03-16T07:11:19.146Z,7.41
2024-03-16T07:13:19.487Z,7.37
2024-03-16T07:15:20.046Z,7.71
2024-03-16T07:18:21.947Z,7.76
2024-03-16T07:20:21.959Z,7.77
2024-03-16T07:22:21.775Z,8.07
2024-03-16T07:24:21.784Z,8.04
2024-03-16T07:26:21.990Z,7.89
2024-03-16T07:28:21.764Z,8.35
2024-03-16T07:30:21.760Z,8.11
2024-03-16T07:33:26.665Z,8.13
2024-03-16T07:35:26.610Z,8.58
2024-03-16T07:37:26.582Z,8.77
2024-03-16T07:39:26.660Z,9.02
2024-03-16T07:41:26.581Z,8.6
2024-03-16T07:43:26.609Z,8.92
2024-03-16T07:45:26.460Z,8.81
2024-03-16T07:48:47.638Z,8.98
2024-03-16T07:50:47.550Z,9.46
2024-03-16T07:52:47.718Z,8.58
2024-03-16T07:54:47.621Z,9.19
2024-03-16T07:56:49.123Z,9.78
2024-03-16T07:58:47.536Z,9.18
2024-03-16T08:00:47.547Z,9.45
2024-03-16T08:03:38.870Z,9.59
2024-03-16T08:05:38.756Z,9.44
2024-03-16T08:07:38.895Z,9.17
2024-03-16T08:09:38.779Z,10.1
2024-03-16T08:11:38.883Z,9.34
2024-03-16T08:13:38.713Z,9.04
2024-03-16T08:15:38.723Z,9.34
2024-03-16T08:18:37.686Z,8.87
2024-03-16T08:20:37.605Z,9.46
2024-03-16T08:22:37.618Z,10.14
2024-03-16T08:24:37.799Z,10.09
2024-03-16T08:26:37.607Z,9.71
2024-03-16T08:28:37.783Z,10.71
2024-03-16T08:30:38.129Z,10.72
2024-03-16T08:32:37.615Z,10.72
2024-03-16T08:33:55.164Z,10.17
2024-03-16T08:35:55.267Z,9.88
2024-03-16T08:37:55.890Z,10.91
2024-03-16T08:39:56.190Z,10.09
2024-03-16T08:41:55.266Z,10.36
2024-03-16T08:43:55.157Z,10.05
2024-03-16T08:45:55.154Z,10.62
2024-03-16T08:49:14.618Z,9.71
2024-03-16T08:51:14.381Z,10.39
2024-03-16T08:53:14.553Z,10.78
2024-03-16T08:55:14.933Z,11.11
2024-03-16T08:57:14.362Z,10.45
2024-03-16T08:59:14.397Z,10.84
2024-03-16T09:01:14.635Z,10.68
2024-03-16T09:04:00.315Z,11.39
2024-03-16T09:06:00.359Z,11.88
2024-03-16T09:08:00.586Z,12.06
2024-03-16T09:10:00.439Z,12.6
2024-03-16T09:12:00.354Z,11.6
2024-03-16T09:14:00.276Z,11.41
2024-03-16T09:16:00.282Z,11.71
2024-03-16T09:18:00.348Z,12.36
2024-03-16T09:20:01.098Z,13.62
2024-03-16T09:21:57.672Z,14.24
2024-03-16T09:23:57.681Z,13.54
2024-03-16T09:25:57.596Z,13.99
2024-03-16T09:27:57.591Z,14.64
2024-03-16T09:29:57.802Z,15.05
2024-03-16T09:31:57.572Z,14.68
2024-03-16T09:34:26.031Z,15.26
2024-03-16T09:36:26.061Z,15.6
2024-03-16T09:38:26.033Z,15.86
2024-03-16T09:40:26.058Z,15.96
2024-03-16T09:42:26.316Z,14.01
2024-03-16T09:44:26.016Z,13.7
2024-03-16T09:46:26.014Z,13.54
2024-03-16T09:50:11.544Z,15.52
2024-03-16T09:52:11.477Z,15.96
2024-03-16T09:54:11.481Z,16.51
2024-03-16T09:56:11.569Z,16.46
2024-03-16T09:58:13.587Z,16.11
2024-03-16T10:00:11.519Z,15.29
2024-03-16T10:02:11.596Z,15.14
2024-03-16T10:04:56.646Z,15.71
2024-03-16T10:06:56.650Z,15.37
2024-03-16T10:08:56.653Z,15.42
2024-03-16T10:10:56.632Z,14.52
2024-03-16T10:12:56.713Z,14.92
2024-03-16T10:14:56.616Z,14.35
2024-03-16T10:16:56.635Z,14.83
2024-03-16T10:20:14.599Z,14.84
2024-03-16T10:22:14.435Z,14.94
2024-03-16T10:24:14.386Z,14.65
2024-03-16T10:26:14.430Z,14.26
2024-03-16T10:28:14.484Z,14.86
2024-03-16T10:30:14.367Z,14.72
2024-03-16T10:32:14.411Z,14.15
2024-03-16T10:35:18.527Z,13.35
2024-03-16T10:37:18.761Z,13.6
2024-03-16T10:39:18.515Z,14.77
2024-03-16T10:41:18.529Z,13.82
2024-03-16T10:43:18.589Z,14.41
2024-03-16T10:45:18.521Z,14.65
2024-03-16T10:47:18.525Z,14.41
2024-03-16T10:50:27.856Z,14.47
2024-03-16T10:52:27.669Z,14.4
2024-03-16T10:54:27.725Z,14.53
2024-03-16T10:56:27.878Z,14.82
2024-03-16T10:58:27.688Z,15.5
2024-03-16T11:00:27.666Z,15.86
2024-03-16T11:02:27.850Z,16.45
2024-03-16T11:05:57.161Z,15.55
2024-03-16T11:07:57.067Z,15.67
2024-03-16T11:09:57.031Z,15.41
2024-03-16T11:11:57.043Z,15.62
2024-03-16T11:13:57.431Z,15.61
2024-03-16T11:15:56.936Z,15.07
2024-03-16T11:17:57.232Z,15.52
2024-03-16T11:21:05.945Z,14.53
2024-03-16T11:23:06.101Z,14.73
2024-03-16T11:25:05.943Z,14.5
2024-03-16T11:27:05.963Z,14.22
2024-03-16T11:29:06.007Z,14.28
2024-03-16T11:31:05.891Z,14.67
2024-03-16T11:33:05.926Z,14.45
2024-03-16T11:35:20.214Z,14.71
2024-03-16T11:37:20.159Z,14.72
2024-03-16T11:39:20.153Z,14.74
2024-03-16T11:41:20.252Z,15.53
2024-03-16T11:43:20.145Z,15.57
2024-03-16T11:45:20.239Z,15.11
2024-03-16T11:47:20.269Z,14.74
2024-03-16T11:49:20.171Z,15.64
2024-03-16T11:51:18.950Z,14.94
2024-03-16T11:53:18.974Z,15.42
2024-03-16T11:55:19.012Z,15.66
2024-03-16T11:57:18.947Z,15.5
2024-03-16T11:59:19.332Z,16.19
2024-03-16T12:01:19.065Z,16.86
2024-03-16T12:03:18.954Z,16.88
2024-03-16T12:05:38.693Z,16.72
2024-03-16T12:07:38.510Z,16.03
2024-03-16T12:09:38.495Z,14.78
2024-03-16T12:11:38.667Z,14.88
2024-03-16T12:13:38.575Z,14.17
2024-03-16T12:15:38.500Z,14.73
2024-03-16T12:17:38.563Z,15.23
2024-03-16T12:20:52.171Z,14.58
2024-03-16T12:22:51.538Z,14.33
2024-03-16T12:24:51.567Z,14.09
2024-03-16T12:26:51.798Z,14.49
2024-03-16T12:28:51.589Z,14.24
2024-03-16T12:30:51.732Z,14.88
2024-03-16T12:32:51.807Z,15.08
2024-03-16T12:36:08.220Z,14.62
2024-03-16T12:38:07.288Z,14.84
2024-03-16T12:40:07.479Z,15.39
2024-03-16T12:42:08.058Z,14.81
2024-03-16T12:44:07.324Z,14.52
2024-03-16T12:46:07.368Z,14.79
2024-03-16T12:48:07.654Z,14.64
2024-03-16T12:51:26.083Z,14.72
2024-03-16T12:53:26.246Z,15.22
2024-03-16T12:55:26.061Z,15.36
2024-03-16T12:57:26.517Z,14.98
2024-03-16T12:59:26.070Z,15.21
2024-03-16T13:01:26.026Z,14.98
2024-03-16T13:03:26.255Z,15.29
2024-03-16T13:06:18.083Z,15.3
2024-03-16T13:08:18.110Z,15.66
2024-03-16T13:10:18.351Z,15.4
2024-03-16T13:12:18.106Z,15.12
2024-03-16T13:14:18.190Z,15.02
2024-03-16T13:16:18.155Z,15.11
2024-03-16T13:18:18.150Z,15.04
2024-03-16T13:22:04.600Z,15.58
2024-03-16T13:24:04.416Z,16.09
2024-03-16T13:26:04.412Z,15.71
2024-03-16T13:28:08.479Z,15.69
2024-03-16T13:30:04.400Z,15.71
2024-03-16T13:32:04.392Z,15.65
2024-03-16T13:34:04.757Z,15.34
2024-03-16T13:36:42.098Z,15.84
2024-03-16T13:38:42.079Z,15.76
2024-03-16T13:40:42.414Z,15.75
2024-03-16T13:42:42.181Z,15.26
2024-03-16T13:44:42.456Z,15.54
2024-03-16T13:46:43.078Z,15.65
2024-03-16T13:48:42.414Z,15.5
2024-03-16T13:51:29.234Z,16.13
2024-03-16T13:53:29.631Z,15.92
2024-03-16T13:55:29.202Z,15.69
2024-03-16T13:57:29.159Z,15.42
2024-03-16T13:59:29.231Z,15.66
2024-03-16T14:01:29.199Z,15.12
2024-03-16T14:03:29.107Z,15.56
2024-03-16T14:05:29.240Z,15.54
2024-03-16T14:06:46.230Z,15.35
2024-03-16T14:08:45.686Z,15.57
2024-03-16T14:10:45.699Z,15.59
2024-03-16T14:12:45.902Z,15.85
2024-03-16T14:14:45.671Z,15.51
2024-03-16T14:16:45.690Z,15.79
2024-03-16T14:18:45.793Z,15.48
2024-03-16T14:22:21.468Z,15.44
2024-03-16T14:24:21.636Z,15.6
2024-03-16T14:26:21.766Z,16.01
2024-03-16T14:28:21.518Z,16.26
2024-03-16T14:30:21.494Z,15.3
2024-03-16T14:32:21.573Z,15.38
2024-03-16T14:34:21.462Z,15.77
2024-03-16T14:37:27.995Z,16.21
2024-03-16T14:39:27.892Z,15.84
2024-03-16T14:41:28.069Z,15.49
2024-03-16T14:43:28.011Z,15.55
2024-03-16T14:45:30.765Z,15.67
2024-03-16T14:47:27.886Z,15.75
2024-03-16T14:49:27.918Z,15.49
2024-03-16T14:51:57.679Z,15.96
2024-03-16T14:53:57.495Z,15.94
2024-03-16T14:55:57.468Z,16.01
2024-03-16T14:57:57.757Z,16.22
2024-03-16T14:59:57.646Z,16.29
2024-03-16T15:01:57.478Z,16.31
2024-03-16T15:03:57.517Z,16.32
2024-03-16T15:05:57.482Z,16.31
2024-03-16T15:07:56.867Z,16.27
2024-03-16T15:09:56.904Z,16.26
2024-03-16T15:11:56.857Z,16.23
2024-03-16T15:13:56.808Z,16.2
2024-03-16T15:15:57.029Z,16.19
2024-03-16T15:17:56.796Z,16.14
2024-03-16T15:19:56.793Z,16.13
2024-03-16T15:22:30.865Z,15.78
2024-03-16T15:24:31.090Z,15.75
2024-03-16T15:26:30.430Z,15.81
2024-03-16T15:28:30.721Z,15.82
2024-03-16T15:30:30.485Z,15.78
2024-03-16T15:32:30.464Z,15.72
2024-03-16T15:34:30.585Z,15.63
2024-03-16T15:38:12.781Z,15.49
2024-03-16T15:40:12.790Z,15.39
2024-03-16T15:42:12.718Z,15.3
2024-03-16T15:44:12.660Z,15.21
2024-03-16T15:46:12.884Z,15.12
2024-03-16T15:48:12.696Z,15.01
2024-03-16T15:50:12.694Z,14.92
2024-03-16T15:53:15.790Z,14.76
2024-03-16T15:55:15.558Z,14.66
2024-03-16T15:57:15.526Z,14.57
2024-03-16T15:59:15.679Z,14.46
2024-03-16T16:01:15.568Z,14.36
2024-03-16T16:03:15.567Z,14.25
2024-03-16T16:05:15.634Z,14.13
2024-03-16T16:08:21.060Z,13.96
2024-03-16T16:10:21.074Z,13.84
2024-03-16T16:12:21.012Z,13.71
2024-03-16T16:14:21.156Z,13.62
2024-03-16T16:16:20.979Z,13.53
2024-03-16T16:18:21.006Z,13.43
2024-03-16T16:20:21.837Z,13.31
2024-03-16T16:22:54.842Z,13.15
2024-03-16T16:24:54.871Z,13.04
2024-03-16T16:26:55.540Z,12.93
2024-03-16T16:28:54.799Z,12.88
2024-03-16T16:30:54.909Z,12.84
2024-03-16T16:32:55.108Z,12.74
2024-03-16T16:34:54.851Z,12.64
2024-03-16T16:37:54.437Z,12.52
2024-03-16T16:39:54.329Z,12.42
2024-03-16T16:41:54.589Z,12.35
2024-03-16T16:43:54.196Z,12.22
2024-03-16T16:45:54.350Z,12.17
2024-03-16T16:47:55.203Z,12.08
2024-03-16T16:49:55.278Z,12
2024-03-16T16:51:54.326Z,11.93
2024-03-16T16:53:25.859Z,11.85
2024-03-16T16:55:25.424Z,11.79
2024-03-16T16:57:25.417Z,11.78
2024-03-16T16:59:25.641Z,11.64
2024-03-16T17:01:25.371Z,11.65
2024-03-16T17:03:25.390Z,11.58
2024-03-16T17:05:25.557Z,11.49
2024-03-16T17:08:55.347Z,11.33
2024-03-16T17:10:55.719Z,11.28
2024-03-16T17:12:55.354Z,11.21
2024-03-16T17:14:55.198Z,11.18
2024-03-16T17:16:55.400Z,11.16
2024-03-16T17:18:55.337Z,11.03
2024-03-16T17:20:55.219Z,11.03
2024-03-16T17:23:35.813Z,10.97
2024-03-16T17:25:35.670Z,10.88
2024-03-16T17:27:35.702Z,10.76
2024-03-16T17:29:35.986Z,10.78
2024-03-16T17:31:35.772Z,10.77
2024-03-16T17:33:35.671Z,10.74
2024-03-16T17:35:36.069Z,10.68
2024-03-16T17:38:47.787Z,10.5
2024-03-16T17:40:47.649Z,10.53
2024-03-16T17:42:47.640Z,10.52
2024-03-16T17:44:48.006Z,10.46
2024-03-16T17:46:47.577Z,10.48
2024-03-16T17:48:47.580Z,10.39
2024-03-16T17:50:47.674Z,10.39
2024-03-16T17:54:22.108Z,10.42
2024-03-16T17:56:22.238Z,10.49
2024-03-16T17:58:22.038Z,10.45
2024-03-16T18:00:22.159Z,10.45
2024-03-16T18:02:22.447Z,10.41
2024-03-16T18:04:22.082Z,10.4
2024-03-16T18:06:22.019Z,10.43
2024-03-16T18:08:50.261Z,10.5
2024-03-16T18:10:50.235Z,10.49
2024-03-16T18:12:50.406Z,10.45
2024-03-16T18:14:50.240Z,10.44
2024-03-16T18:16:50.209Z,10.44
2024-03-16T18:18:50.321Z,10.45
2024-03-16T18:20:50.404Z,10.37
2024-03-16T18:23:44.447Z,10.38
2024-03-16T18:25:45.146Z,10.32
2024-03-16T18:27:44.612Z,10.33
2024-03-16T18:29:44.441Z,10.33
2024-03-16T18:31:44.454Z,10.3
2024-03-16T18:33:45.043Z,10.3
2024-03-16T18:35:44.478Z,10.32
2024-03-16T18:37:44.409Z,10.28
2024-03-16T18:39:29.787Z,10.23
2024-03-16T18:41:29.779Z,10.18
2024-03-16T18:43:29.701Z,10.11
2024-03-16T18:45:29.792Z,10.03
2024-03-16T18:47:29.731Z,9.95
2024-03-16T18:49:29.967Z,9.93
2024-03-16T18:51:29.853Z,9.89
2024-03-16T18:54:49.057Z,9.87
2024-03-16T18:56:49.169Z,9.83
2024-03-16T18:58:49.111Z,9.8
2024-03-16T19:00:49.101Z,9.78
2024-03-16T19:02:51.752Z,9.77
2024-03-16T19:04:49.060Z,9.73
2024-03-16T19:06:49.086Z,9.7
2024-03-16T19:09:57.840Z,9.66
2024-03-16T19:11:57.458Z,9.64
2024-03-16T19:13:57.462Z,9.56
2024-03-16T19:15:57.722Z,9.48
2024-03-16T19:17:59.928Z,9.46
2024-03-16T19:19:57.547Z,9.43
2024-03-16T19:21:57.740Z,9.39
2024-03-16T19:24:44.036Z,9.29
2024-03-16T19:26:44.026Z,9.26
2024-03-16T19:28:44.037Z,9.21
2024-03-16T19:30:44.149Z,9.14
2024-03-16T19:32:44.054Z,9.15
2024-03-16T19:34:44.173Z,9.07
2024-03-16T19:36:44.003Z,9.02
2024-03-16T19:39:38.343Z,8.93
2024-03-16T19:41:38.438Z,8.9
2024-03-16T19:43:38.234Z,8.88
2024-03-16T19:45:38.231Z,8.87
2024-03-16T19:47:38.448Z,8.8
2024-03-16T19:49:38.667Z,8.73
2024-03-16T19:51:38.292Z,8.68
2024-03-16T19:55:08.394Z,8.64
2024-03-16T19:57:08.092Z,8.62
2024-03-16T19:59:08.002Z,8.64
2024-03-16T20:01:08.133Z,8.59
2024-03-16T20:03:08.115Z,8.59
2024-03-16T20:05:08.079Z,8.49
2024-03-16T20:07:08.079Z,8.43
2024-03-16T20:10:17.083Z,8.45
2024-03-16T20:12:16.724Z,8.42
2024-03-16T20:14:16.730Z,8.37
2024-03-16T20:16:16.746Z,8.37
2024-03-16T20:18:16.726Z,8.36
2024-03-16T20:20:16.830Z,8.32
2024-03-16T20:22:16.999Z,8.28
2024-03-16T20:25:04.812Z,8.22
2024-03-16T20:27:05.016Z,8.22
2024-03-16T20:29:04.824Z,8.2
2024-03-16T20:31:04.924Z,8.2
2024-03-16T20:33:04.989Z,8.16
2024-03-16T20:35:04.854Z,8.14
2024-03-16T20:37:04.809Z,7.97
2024-03-16T20:40:38.260Z,8.11
2024-03-16T20:42:37.971Z,8.12
2024-03-16T20:44:37.940Z,8.15
2024-03-16T20:46:38.076Z,8.18
2024-03-16T20:48:37.927Z,8.18
2024-03-16T20:50:37.929Z,8.22
2024-03-16T20:52:38.108Z,8.2
2024-03-16T20:55:45.262Z,8.19
2024-03-16T20:57:47.714Z,8.27
2024-03-16T20:59:45.213Z,8.27
2024-03-16T21:01:45.339Z,8.31
2024-03-16T21:03:45.436Z,8.28
2024-03-16T21:05:45.259Z,8.35
2024-03-16T21:07:45.262Z,8.38
2024-03-16T21:10:31.244Z,8.36
2024-03-16T21:12:30.814Z,8.34
2024-03-16T21:14:30.768Z,8.33
2024-03-16T21:16:30.993Z,8.4
2024-03-16T21:18:30.802Z,8.36
2024-03-16T21:20:30.761Z,8.35
2024-03-16T21:22:30.892Z,8.3
2024-03-16T21:25:52.371Z,8.32
2024-03-16T21:27:52.648Z,8.33
2024-03-16T21:29:52.330Z,8.36
2024-03-16T21:31:52.319Z,8.37
2024-03-16T21:33:52.453Z,8.31
2024-03-16T21:35:52.299Z,8.3
2024-03-16T21:37:52.436Z,8.24
2024-03-16T21:41:11.390Z,8.18
2024-03-16T21:43:11.316Z,8.26
2024-03-16T21:45:11.518Z,8.2
2024-03-16T21:47:11.322Z,8.19
2024-03-16T21:49:11.311Z,8.18
2024-03-16T21:51:11.430Z,8.16
2024-03-16T21:53:11.402Z,8.15
2024-03-16T21:56:26.492Z,8.12
2024-03-16T21:58:26.220Z,8.11
2024-03-16T22:00:26.630Z,8.04
2024-03-16T22:02:26.208Z,8.04
2024-03-16T22:04:28.320Z,8.06
2024-03-16T22:06:26.139Z,8.02
2024-03-16T22:08:26.470Z,7.99
2024-03-16T22:11:16.059Z,7.99
2024-03-16T22:13:16.074Z,8
2024-03-16T22:15:16.456Z,7.98
2024-03-16T22:17:16.194Z,7.98
2024-03-16T22:19:16.060Z,7.97
2024-03-16T22:21:16.447Z,8
2024-03-16T22:23:16.022Z,7.97
2024-03-16T22:25:48.963Z,8
2024-03-16T22:27:49.116Z,8.04
2024-03-16T22:29:48.973Z,8.09
2024-03-16T22:31:49.001Z,8.13
2024-03-16T22:33:49.016Z,8.15
2024-03-16T22:35:48.934Z,8.19
2024-03-16T22:37:49.086Z,8.19
2024-03-16T22:39:49.088Z,8.21
2024-03-16T22:41:20.131Z,8.2
2024-03-16T22:43:20.120Z,8.19
2024-03-16T22:45:20.299Z,8.18
2024-03-16T22:47:20.105Z,8.14
2024-03-16T22:49:20.181Z,8.14
2024-03-16T22:51:20.246Z,8.09
2024-03-16T22:53:20.096Z,8.08
2024-03-16T22:56:39.560Z,8.07
2024-03-16T22:58:38.020Z,8.07
2024-03-16T23:00:37.874Z,8.05
2024-03-16T23:02:38.086Z,8.02
2024-03-16T23:04:37.801Z,8
2024-03-16T23:06:37.818Z,7.96
2024-03-16T23:08:38.496Z,7.94
2024-03-16T23:11:11.170Z,7.95
2024-03-16T23:13:11.152Z,7.94
2024-03-16T23:15:11.270Z,7.94
2024-03-16T23:17:11.198Z,7.94
2024-03-16T23:19:11.177Z,7.92
2024-03-16T23:21:11.254Z,7.83
2024-03-16T23:23:11.249Z,7.77
2024-03-16T23:25:11.171Z,7.79
2024-03-16T23:26:48.472Z,7.78
2024-03-16T23:28:48.412Z,7.81
2024-03-16T23:30:48.421Z,7.76
2024-03-16T23:32:48.773Z,7.75
2024-03-16T23:34:48.467Z,7.75
2024-03-16T23:36:49.825Z,7.78
2024-03-16T23:38:48.751Z,7.78
2024-03-16T23:41:45.105Z,7.79
2024-03-16T23:43:45.073Z,7.81
2024-03-16T23:45:45.178Z,7.82
2024-03-16T23:47:45.053Z,7.8
2024-03-16T23:49:45.114Z,7.78
2024-03-16T23:51:45.181Z,7.81
2024-03-16T23:53:47.872Z,7.82
2024-03-16T23:56:38.179Z,7.76
2024-03-16T23:58:38.365Z,7.73
